sensor_id;sensor_type;location;lat;lon;timestamp;P1;durP1;ratioP1;P2;durP2;ratioP2
77111;SDS011;66064;50.226;14.344;2024-03-06T00:00:20;72.47;;;51.03;;
77111;SDS011;66064;50.226;14.344;2024-03-06T00:03:06;78.13;;;47.40;;
77111;SDS011;66064;50.226;14.344;2024-03-06T00:05:32;71.88;;;47.28;;
77111;SDS011;66064;50.226;14.344;2024-03-06T00:07:58;81.82;;;54.03;;
77111;SDS011;66064;50.226;14.344;2024-03-06T00:10:26;75.53;;;45.83;;
77111;SDS011;66064;50.226;14.344;2024-03-06T00:12:52;81.68;;;55.08;;
77111;SDS011;66064;50.226;14.344;2024-03-06T00:15:18;96.20;;;60.85;;
77111;SDS011;66064;50.226;14.344;2024-03-06T00:17:44;95.70;;;55.53;;
77111;SDS011;66064;50.226;14.344;2024-03-06T00:20:10;93.32;;;53.70;;
77111;SDS011;66064;50.226;14.344;2024-03-06T00:22:36;92.38;;;55.28;;
77111;SDS011;66064;50.226;14.344;2024-03-06T00:25:04;87.90;;;53.38;;
77111;SDS011;66064;50.226;14.344;2024-03-06T00:27:30;96.53;;;57.30;;
77111;SDS011;66064;50.226;14.344;2024-03-06T00:29:56;87.88;;;59.03;;
77111;SDS011;66064;50.226;14.344;2024-03-06T00:32:22;81.22;;;52.40;;
77111;SDS011;66064;50.226;14.344;2024-03-06T00:34:49;85.85;;;57.15;;
77111;SDS011;66064;50.226;14.344;2024-03-06T00:37:14;80.95;;;57.83;;
77111;SDS011;66064;50.226;14.344;2024-03-06T00:39:40;77.65;;;50.50;;
77111;SDS011;66064;50.226;14.344;2024-03-06T00:42:07;79.38;;;52.88;;
77111;SDS011;66064;50.226;14.344;2024-03-06T00:44:35;78.10;;;49.45;;
77111;SDS011;66064;50.226;14.344;2024-03-06T00:47:00;74.97;;;55.30;;
77111;SDS011;66064;50.226;14.344;2024-03-06T00:49:27;76.05;;;50.30;;
77111;SDS011;66064;50.226;14.344;2024-03-06T00:51:54;77.38;;;52.67;;
77111;SDS011;66064;50.226;14.344;2024-03-06T00:54:20;86.65;;;57.70;;
77111;SDS011;66064;50.226;14.344;2024-03-06T00:56:46;75.55;;;49.03;;
77111;SDS011;66064;50.226;14.344;2024-03-06T00:59:12;85.38;;;54.85;;
77111;SDS011;66064;50.226;14.344;2024-03-06T01:01:38;79.30;;;44.70;;
77111;SDS011;66064;50.226;14.344;2024-03-06T01:04:04;80.65;;;56.05;;
77111;SDS011;66064;50.226;14.344;2024-03-06T01:06:36;81.10;;;57.28;;
77111;SDS011;66064;50.226;14.344;2024-03-06T01:09:03;85.38;;;54.42;;
77111;SDS011;66064;50.226;14.344;2024-03-06T01:11:29;82.10;;;52.70;;
77111;SDS011;66064;50.226;14.344;2024-03-06T01:13:55;78.53;;;53.80;;
77111;SDS011;66064;50.226;14.344;2024-03-06T01:16:21;79.22;;;54.55;;
77111;SDS011;66064;50.226;14.344;2024-03-06T01:18:48;97.05;;;62.10;;
77111;SDS011;66064;50.226;14.344;2024-03-06T01:21:14;97.80;;;59.08;;
77111;SDS011;66064;50.226;14.344;2024-03-06T01:23:40;98.13;;;62.38;;
77111;SDS011;66064;50.226;14.344;2024-03-06T01:26:06;83.57;;;47.70;;
77111;SDS011;66064;50.226;14.344;2024-03-06T01:28:33;85.07;;;55.58;;
77111;SDS011;66064;50.226;14.344;2024-03-06T01:30:59;84.18;;;56.72;;
77111;SDS011;66064;50.226;14.344;2024-03-06T01:33:25;87.90;;;55.22;;
77111;SDS011;66064;50.226;14.344;2024-03-06T01:35:52;91.93;;;56.92;;
77111;SDS011;66064;50.226;14.344;2024-03-06T01:38:20;86.90;;;53.45;;
77111;SDS011;66064;50.226;14.344;2024-03-06T01:40:46;74.68;;;48.50;;
77111;SDS011;66064;50.226;14.344;2024-03-06T01:43:36;84.00;;;60.97;;
77111;SDS011;66064;50.226;14.344;2024-03-06T01:46:04;81.85;;;56.35;;
77111;SDS011;66064;50.226;14.344;2024-03-06T01:48:31;78.93;;;53.90;;
77111;SDS011;66064;50.226;14.344;2024-03-06T01:50:59;83.15;;;54.55;;
77111;SDS011;66064;50.226;14.344;2024-03-06T01:53:28;84.13;;;53.78;;
77111;SDS011;66064;50.226;14.344;2024-03-06T01:55:56;80.07;;;56.60;;
77111;SDS011;66064;50.226;14.344;2024-03-06T01:58:23;75.25;;;52.13;;
77111;SDS011;66064;50.226;14.344;2024-03-06T02:00:50;78.43;;;54.80;;
77111;SDS011;66064;50.226;14.344;2024-03-06T02:03:19;88.80;;;60.40;;
77111;SDS011;66064;50.226;14.344;2024-03-06T02:05:50;81.45;;;57.28;;
77111;SDS011;66064;50.226;14.344;2024-03-06T02:08:17;88.75;;;60.05;;
77111;SDS011;66064;50.226;14.344;2024-03-06T02:10:46;88.15;;;58.25;;
77111;SDS011;66064;50.226;14.344;2024-03-06T02:13:13;87.07;;;59.33;;
77111;SDS011;66064;50.226;14.344;2024-03-06T02:15:39;76.47;;;43.80;;
77111;SDS011;66064;50.226;14.344;2024-03-06T02:18:06;86.63;;;59.80;;
77111;SDS011;66064;50.226;14.344;2024-03-06T02:20:32;82.65;;;59.40;;
77111;SDS011;66064;50.226;14.344;2024-03-06T02:22:59;93.32;;;63.15;;
77111;SDS011;66064;50.226;14.344;2024-03-06T02:25:25;88.20;;;57.45;;
77111;SDS011;66064;50.226;14.344;2024-03-06T02:27:52;81.25;;;54.72;;
77111;SDS011;66064;50.226;14.344;2024-03-06T02:30:21;83.18;;;58.38;;
77111;SDS011;66064;50.226;14.344;2024-03-06T02:32:47;93.22;;;63.05;;
77111;SDS011;66064;50.226;14.344;2024-03-06T02:35:13;84.78;;;56.58;;
77111;SDS011;66064;50.226;14.344;2024-03-06T02:37:43;86.97;;;63.30;;
77111;SDS011;66064;50.226;14.344;2024-03-06T02:40:09;87.15;;;57.47;;
77111;SDS011;66064;50.226;14.344;2024-03-06T02:42:38;93.70;;;56.22;;
77111;SDS011;66064;50.226;14.344;2024-03-06T02:45:05;86.82;;;61.03;;
77111;SDS011;66064;50.226;14.344;2024-03-06T02:47:33;90.22;;;64.28;;
77111;SDS011;66064;50.226;14.344;2024-03-06T02:49:59;82.95;;;59.92;;
77111;SDS011;66064;50.226;14.344;2024-03-06T02:52:26;90.47;;;62.83;;
77111;SDS011;66064;50.226;14.344;2024-03-06T02:54:52;91.60;;;62.70;;
77111;SDS011;66064;50.226;14.344;2024-03-06T02:57:18;81.80;;;57.22;;
77111;SDS011;66064;50.226;14.344;2024-03-06T02:59:43;94.38;;;57.22;;
77111;SDS011;66064;50.226;14.344;2024-03-06T03:02:09;89.00;;;59.10;;
77111;SDS011;66064;50.226;14.344;2024-03-06T03:04:36;88.70;;;62.10;;
77111;SDS011;66064;50.226;14.344;2024-03-06T03:07:03;88.65;;;59.25;;
77111;SDS011;66064;50.226;14.344;2024-03-06T03:09:31;90.40;;;60.10;;
77111;SDS011;66064;50.226;14.344;2024-03-06T03:11:57;91.50;;;62.53;;
77111;SDS011;66064;50.226;14.344;2024-03-06T03:14:25;92.15;;;59.58;;
77111;SDS011;66064;50.226;14.344;2024-03-06T03:16:52;85.78;;;52.80;;
77111;SDS011;66064;50.226;14.344;2024-03-06T03:19:19;85.75;;;55.95;;
77111;SDS011;66064;50.226;14.344;2024-03-06T03:21:46;76.68;;;55.83;;
77111;SDS011;66064;50.226;14.344;2024-03-06T03:24:13;81.60;;;52.38;;
77111;SDS011;66064;50.226;14.344;2024-03-06T03:26:39;80.97;;;55.63;;
77111;SDS011;66064;50.226;14.344;2024-03-06T03:29:07;76.70;;;52.45;;
77111;SDS011;66064;50.226;14.344;2024-03-06T03:31:34;76.55;;;53.85;;
77111;SDS011;66064;50.226;14.344;2024-03-06T03:34:01;83.65;;;56.00;;
77111;SDS011;66064;50.226;14.344;2024-03-06T03:36:28;79.68;;;51.13;;
77111;SDS011;66064;50.226;14.344;2024-03-06T03:38:53;79.28;;;52.40;;
77111;SDS011;66064;50.226;14.344;2024-03-06T03:41:21;71.10;;;41.88;;
77111;SDS011;66064;50.226;14.344;2024-03-06T03:43:48;106.97;;;72.53;;
77111;SDS011;66064;50.226;14.344;2024-03-06T03:46:15;82.97;;;56.38;;
77111;SDS011;66064;50.226;14.344;2024-03-06T03:48:40;85.45;;;58.47;;
77111;SDS011;66064;50.226;14.344;2024-03-06T03:51:07;93.28;;;58.00;;
77111;SDS011;66064;50.226;14.344;2024-03-06T03:53:34;87.30;;;56.25;;
77111;SDS011;66064;50.226;14.344;2024-03-06T03:56:01;84.15;;;53.85;;
77111;SDS011;66064;50.226;14.344;2024-03-06T03:58:28;93.70;;;57.25;;
77111;SDS011;66064;50.226;14.344;2024-03-06T04:00:55;98.78;;;60.78;;
77111;SDS011;66064;50.226;14.344;2024-03-06T04:03:21;91.95;;;59.83;;
77111;SDS011;66064;50.226;14.344;2024-03-06T04:05:48;90.72;;;56.90;;
77111;SDS011;66064;50.226;14.344;2024-03-06T04:08:14;87.47;;;57.28;;
77111;SDS011;66064;50.226;14.344;2024-03-06T04:10:43;85.70;;;54.97;;
77111;SDS011;66064;50.226;14.344;2024-03-06T04:13:12;85.13;;;59.17;;
77111;SDS011;66064;50.226;14.344;2024-03-06T04:15:41;83.75;;;59.38;;
77111;SDS011;66064;50.226;14.344;2024-03-06T04:18:07;78.35;;;48.83;;
77111;SDS011;66064;50.226;14.344;2024-03-06T04:20:33;76.60;;;53.80;;
77111;SDS011;66064;50.226;14.344;2024-03-06T04:22:59;84.53;;;53.83;;
77111;SDS011;66064;50.226;14.344;2024-03-06T04:25:26;82.82;;;54.53;;
77111;SDS011;66064;50.226;14.344;2024-03-06T04:27:52;81.07;;;51.47;;
77111;SDS011;66064;50.226;14.344;2024-03-06T04:30:18;84.78;;;56.58;;
77111;SDS011;66064;50.226;14.344;2024-03-06T04:32:44;92.88;;;60.17;;
77111;SDS011;66064;50.226;14.344;2024-03-06T04:35:10;94.13;;;57.97;;
77111;SDS011;66064;50.226;14.344;2024-03-06T04:37:36;93.68;;;56.67;;
77111;SDS011;66064;50.226;14.344;2024-03-06T04:40:03;103.40;;;60.15;;
77111;SDS011;66064;50.226;14.344;2024-03-06T04:42:34;92.40;;;61.05;;
77111;SDS011;66064;50.226;14.344;2024-03-06T04:45:11;101.20;;;66.07;;
77111;SDS011;66064;50.226;14.344;2024-03-06T04:47:40;128.00;;;78.03;;
77111;SDS011;66064;50.226;14.344;2024-03-06T04:50:10;120.25;;;74.88;;
77111;SDS011;66064;50.226;14.344;2024-03-06T04:52:37;144.38;;;79.70;;
77111;SDS011;66064;50.226;14.344;2024-03-06T04:55:06;182.15;;;101.10;;
77111;SDS011;66064;50.226;14.344;2024-03-06T04:57:34;161.25;;;85.43;;
77111;SDS011;66064;50.226;14.344;2024-03-06T05:00:01;166.30;;;93.45;;
77111;SDS011;66064;50.226;14.344;2024-03-06T05:02:34;100.85;;;65.78;;
77111;SDS011;66064;50.226;14.344;2024-03-06T05:05:01;103.05;;;66.97;;
77111;SDS011;66064;50.226;14.344;2024-03-06T05:07:28;119.00;;;74.47;;
77111;SDS011;66064;50.226;14.344;2024-03-06T05:09:57;132.32;;;77.85;;
77111;SDS011;66064;50.226;14.344;2024-03-06T05:12:24;103.35;;;63.95;;
77111;SDS011;66064;50.226;14.344;2024-03-06T05:14:52;108.60;;;66.47;;
77111;SDS011;66064;50.226;14.344;2024-03-06T05:17:19;102.40;;;63.80;;
77111;SDS011;66064;50.226;14.344;2024-03-06T05:19:46;101.38;;;58.80;;
77111;SDS011;66064;50.226;14.344;2024-03-06T05:22:16;92.43;;;62.30;;
77111;SDS011;66064;50.226;14.344;2024-03-06T05:24:43;91.38;;;62.28;;
77111;SDS011;66064;50.226;14.344;2024-03-06T05:27:10;94.53;;;60.85;;
77111;SDS011;66064;50.226;14.344;2024-03-06T05:29:43;111.15;;;71.82;;
77111;SDS011;66064;50.226;14.344;2024-03-06T05:32:10;113.07;;;66.85;;
77111;SDS011;66064;50.226;14.344;2024-03-06T05:34:36;125.53;;;73.80;;
77111;SDS011;66064;50.226;14.344;2024-03-06T05:37:02;113.70;;;65.75;;
77111;SDS011;66064;50.226;14.344;2024-03-06T05:39:30;111.30;;;68.75;;
77111;SDS011;66064;50.226;14.344;2024-03-06T05:42:01;113.22;;;59.85;;
77111;SDS011;66064;50.226;14.344;2024-03-06T05:44:31;109.47;;;60.30;;
77111;SDS011;66064;50.226;14.344;2024-03-06T05:46:58;108.20;;;68.55;;
77111;SDS011;66064;50.226;14.344;2024-03-06T05:49:34;104.75;;;67.45;;
77111;SDS011;66064;50.226;14.344;2024-03-06T05:52:00;103.40;;;63.95;;
77111;SDS011;66064;50.226;14.344;2024-03-06T05:54:26;108.03;;;67.38;;
77111;SDS011;66064;50.226;14.344;2024-03-06T05:56:53;99.50;;;62.92;;
77111;SDS011;66064;50.226;14.344;2024-03-06T05:59:19;100.57;;;63.05;;
77111;SDS011;66064;50.226;14.344;2024-03-06T06:01:45;89.55;;;58.00;;
77111;SDS011;66064;50.226;14.344;2024-03-06T06:04:13;85.97;;;56.17;;
77111;SDS011;66064;50.226;14.344;2024-03-06T06:06:40;77.90;;;50.90;;
77111;SDS011;66064;50.226;14.344;2024-03-06T06:09:06;75.15;;;50.20;;
77111;SDS011;66064;50.226;14.344;2024-03-06T06:11:32;77.88;;;53.60;;
77111;SDS011;66064;50.226;14.344;2024-03-06T06:13:59;75.78;;;51.97;;
77111;SDS011;66064;50.226;14.344;2024-03-06T06:16:25;74.45;;;48.60;;
77111;SDS011;66064;50.226;14.344;2024-03-06T06:18:51;76.90;;;51.03;;
77111;SDS011;66064;50.226;14.344;2024-03-06T06:21:18;77.72;;;47.95;;
77111;SDS011;66064;50.226;14.344;2024-03-06T06:23:44;81.65;;;51.13;;
77111;SDS011;66064;50.226;14.344;2024-03-06T06:26:10;80.88;;;51.58;;
77111;SDS011;66064;50.226;14.344;2024-03-06T06:28:37;77.38;;;49.10;;
77111;SDS011;66064;50.226;14.344;2024-03-06T06:31:03;82.82;;;55.50;;
77111;SDS011;66064;50.226;14.344;2024-03-06T06:33:30;78.22;;;49.78;;
77111;SDS011;66064;50.226;14.344;2024-03-06T06:35:56;81.60;;;51.95;;
77111;SDS011;66064;50.226;14.344;2024-03-06T06:38:22;80.32;;;57.10;;
77111;SDS011;66064;50.226;14.344;2024-03-06T06:40:48;72.90;;;50.97;;
77111;SDS011;66064;50.226;14.344;2024-03-06T06:43:14;69.90;;;39.22;;
77111;SDS011;66064;50.226;14.344;2024-03-06T06:45:41;68.40;;;44.88;;
77111;SDS011;66064;50.226;14.344;2024-03-06T06:48:07;73.10;;;52.80;;
77111;SDS011;66064;50.226;14.344;2024-03-06T06:50:35;68.85;;;45.47;;
77111;SDS011;66064;50.226;14.344;2024-03-06T06:53:02;75.20;;;50.30;;
77111;SDS011;66064;50.226;14.344;2024-03-06T06:55:28;66.50;;;41.75;;
77111;SDS011;66064;50.226;14.344;2024-03-06T06:57:54;73.45;;;48.00;;
77111;SDS011;66064;50.226;14.344;2024-03-06T07:00:21;66.68;;;43.05;;
77111;SDS011;66064;50.226;14.344;2024-03-06T07:02:48;68.93;;;46.60;;
77111;SDS011;66064;50.226;14.344;2024-03-06T07:05:14;65.05;;;45.75;;
77111;SDS011;66064;50.226;14.344;2024-03-06T07:07:41;72.35;;;47.70;;
77111;SDS011;66064;50.226;14.344;2024-03-06T07:10:08;71.13;;;45.70;;
77111;SDS011;66064;50.226;14.344;2024-03-06T07:12:35;63.42;;;40.92;;
77111;SDS011;66064;50.226;14.344;2024-03-06T07:15:01;69.05;;;38.47;;
77111;SDS011;66064;50.226;14.344;2024-03-06T07:17:28;70.60;;;46.58;;
77111;SDS011;66064;50.226;14.344;2024-03-06T07:19:54;68.65;;;40.92;;
77111;SDS011;66064;50.226;14.344;2024-03-06T07:22:20;60.97;;;41.95;;
77111;SDS011;66064;50.226;14.344;2024-03-06T07:24:46;61.80;;;44.60;;
77111;SDS011;66064;50.226;14.344;2024-03-06T07:27:12;63.92;;;42.40;;
77111;SDS011;66064;50.226;14.344;2024-03-06T07:29:38;69.20;;;45.90;;
77111;SDS011;66064;50.226;14.344;2024-03-06T07:32:04;62.65;;;42.40;;
77111;SDS011;66064;50.226;14.344;2024-03-06T07:34:33;68.72;;;44.95;;
77111;SDS011;66064;50.226;14.344;2024-03-06T07:36:59;64.15;;;44.45;;
77111;SDS011;66064;50.226;14.344;2024-03-06T07:39:25;68.13;;;41.80;;
77111;SDS011;66064;50.226;14.344;2024-03-06T07:41:51;64.97;;;44.08;;
77111;SDS011;66064;50.226;14.344;2024-03-06T07:44:17;65.60;;;42.33;;
77111;SDS011;66064;50.226;14.344;2024-03-06T07:46:44;64.18;;;45.90;;
77111;SDS011;66064;50.226;14.344;2024-03-06T07:49:09;65.20;;;43.88;;
77111;SDS011;66064;50.226;14.344;2024-03-06T07:51:35;64.22;;;42.22;;
77111;SDS011;66064;50.226;14.344;2024-03-06T07:54:01;65.15;;;41.63;;
77111;SDS011;66064;50.226;14.344;2024-03-06T07:56:29;60.80;;;41.67;;
77111;SDS011;66064;50.226;14.344;2024-03-06T07:58:55;67.65;;;42.83;;
77111;SDS011;66064;50.226;14.344;2024-03-06T08:01:21;62.78;;;42.03;;
77111;SDS011;66064;50.226;14.344;2024-03-06T08:03:47;59.42;;;39.88;;
77111;SDS011;66064;50.226;14.344;2024-03-06T08:06:13;58.55;;;40.28;;
77111;SDS011;66064;50.226;14.344;2024-03-06T08:08:42;56.25;;;37.88;;
77111;SDS011;66064;50.226;14.344;2024-03-06T08:11:12;52.42;;;39.03;;
77111;SDS011;66064;50.226;14.344;2024-03-06T08:13:39;54.40;;;37.58;;
77111;SDS011;66064;50.226;14.344;2024-03-06T08:16:05;57.53;;;40.45;;
77111;SDS011;66064;50.226;14.344;2024-03-06T08:18:32;54.65;;;32.97;;
77111;SDS011;66064;50.226;14.344;2024-03-06T08:20:59;54.83;;;33.05;;
77111;SDS011;66064;50.226;14.344;2024-03-06T08:23:25;59.08;;;36.70;;
77111;SDS011;66064;50.226;14.344;2024-03-06T08:25:51;58.40;;;39.47;;
77111;SDS011;66064;50.226;14.344;2024-03-06T08:28:18;60.90;;;41.35;;
77111;SDS011;66064;50.226;14.344;2024-03-06T08:30:44;53.55;;;36.53;;
77111;SDS011;66064;50.226;14.344;2024-03-06T08:33:10;57.95;;;34.22;;
77111;SDS011;66064;50.226;14.344;2024-03-06T08:35:36;55.03;;;38.45;;
77111;SDS011;66064;50.226;14.344;2024-03-06T08:38:03;57.75;;;38.45;;
77111;SDS011;66064;50.226;14.344;2024-03-06T08:40:29;59.03;;;37.55;;
77111;SDS011;66064;50.226;14.344;2024-03-06T08:42:55;51.67;;;36.30;;
77111;SDS011;66064;50.226;14.344;2024-03-06T08:45:21;56.85;;;37.55;;
77111;SDS011;66064;50.226;14.344;2024-03-06T08:47:50;55.10;;;38.60;;
77111;SDS011;66064;50.226;14.344;2024-03-06T08:50:17;60.13;;;39.28;;
77111;SDS011;66064;50.226;14.344;2024-03-06T08:52:43;52.42;;;37.25;;
77111;SDS011;66064;50.226;14.344;2024-03-06T08:55:09;50.70;;;37.92;;
77111;SDS011;66064;50.226;14.344;2024-03-06T08:57:35;53.10;;;36.92;;
77111;SDS011;66064;50.226;14.344;2024-03-06T09:00:02;51.45;;;34.17;;
77111;SDS011;66064;50.226;14.344;2024-03-06T09:02:29;52.83;;;35.95;;
77111;SDS011;66064;50.226;14.344;2024-03-06T09:04:55;47.90;;;32.85;;
77111;SDS011;66064;50.226;14.344;2024-03-06T09:07:22;49.80;;;34.50;;
77111;SDS011;66064;50.226;14.344;2024-03-06T09:09:51;46.22;;;31.45;;
77111;SDS011;66064;50.226;14.344;2024-03-06T09:12:17;51.60;;;33.35;;
77111;SDS011;66064;50.226;14.344;2024-03-06T09:14:44;48.72;;;34.25;;
77111;SDS011;66064;50.226;14.344;2024-03-06T09:17:10;46.72;;;32.80;;
77111;SDS011;66064;50.226;14.344;2024-03-06T09:19:40;46.35;;;32.67;;
77111;SDS011;66064;50.226;14.344;2024-03-06T09:22:06;47.05;;;33.38;;
77111;SDS011;66064;50.226;14.344;2024-03-06T09:24:32;49.20;;;34.00;;
77111;SDS011;66064;50.226;14.344;2024-03-06T09:27:00;47.53;;;32.97;;
77111;SDS011;66064;50.226;14.344;2024-03-06T09:29:27;46.75;;;32.75;;
77111;SDS011;66064;50.226;14.344;2024-03-06T09:31:52;45.28;;;30.55;;
77111;SDS011;66064;50.226;14.344;2024-03-06T09:34:18;47.30;;;31.63;;
77111;SDS011;66064;50.226;14.344;2024-03-06T09:36:48;46.13;;;31.33;;
77111;SDS011;66064;50.226;14.344;2024-03-06T09:39:15;49.88;;;30.52;;
77111;SDS011;66064;50.226;14.344;2024-03-06T09:41:43;48.15;;;33.90;;
77111;SDS011;66064;50.226;14.344;2024-03-06T09:44:10;50.35;;;33.35;;
77111;SDS011;66064;50.226;14.344;2024-03-06T09:46:36;50.38;;;35.10;;
77111;SDS011;66064;50.226;14.344;2024-03-06T09:49:02;48.75;;;33.13;;
77111;SDS011;66064;50.226;14.344;2024-03-06T09:51:28;52.35;;;34.95;;
77111;SDS011;66064;50.226;14.344;2024-03-06T09:53:55;54.80;;;33.15;;
77111;SDS011;66064;50.226;14.344;2024-03-06T09:56:21;50.90;;;34.45;;
77111;SDS011;66064;50.226;14.344;2024-03-06T09:58:48;43.80;;;31.15;;
77111;SDS011;66064;50.226;14.344;2024-03-06T10:01:13;47.42;;;33.97;;
77111;SDS011;66064;50.226;14.344;2024-03-06T10:03:40;44.15;;;32.83;;
77111;SDS011;66064;50.226;14.344;2024-03-06T10:06:06;49.45;;;34.30;;
77111;SDS011;66064;50.226;14.344;2024-03-06T10:08:33;44.15;;;30.30;;
77111;SDS011;66064;50.226;14.344;2024-03-06T10:10:59;48.88;;;33.00;;
77111;SDS011;66064;50.226;14.344;2024-03-06T10:13:26;45.50;;;31.40;;
77111;SDS011;66064;50.226;14.344;2024-03-06T10:15:56;44.92;;;31.88;;
77111;SDS011;66064;50.226;14.344;2024-03-06T10:18:27;43.92;;;30.58;;
77111;SDS011;66064;50.226;14.344;2024-03-06T10:20:54;45.60;;;28.65;;
77111;SDS011;66064;50.226;14.344;2024-03-06T10:23:20;50.17;;;32.08;;
77111;SDS011;66064;50.226;14.344;2024-03-06T10:25:47;43.20;;;30.20;;
77111;SDS011;66064;50.226;14.344;2024-03-06T10:28:20;38.05;;;28.60;;
77111;SDS011;66064;50.226;14.344;2024-03-06T10:30:49;41.55;;;30.20;;
77111;SDS011;66064;50.226;14.344;2024-03-06T10:33:16;41.90;;;29.45;;
77111;SDS011;66064;50.226;14.344;2024-03-06T10:35:46;43.45;;;31.17;;
77111;SDS011;66064;50.226;14.344;2024-03-06T10:38:13;40.78;;;29.40;;
77111;SDS011;66064;50.226;14.344;2024-03-06T10:40:41;42.25;;;29.40;;
77111;SDS011;66064;50.226;14.344;2024-03-06T10:43:08;42.85;;;29.92;;
77111;SDS011;66064;50.226;14.344;2024-03-06T10:45:49;41.00;;;29.65;;
77111;SDS011;66064;50.226;14.344;2024-03-06T10:48:17;47.17;;;33.67;;
77111;SDS011;66064;50.226;14.344;2024-03-06T10:50:45;47.80;;;31.88;;
77111;SDS011;66064;50.226;14.344;2024-03-06T10:53:13;45.72;;;31.50;;
77111;SDS011;66064;50.226;14.344;2024-03-06T10:58:10;48.45;;;32.95;;
77111;SDS011;66064;50.226;14.344;2024-03-06T11:00:37;50.00;;;34.25;;
77111;SDS011;66064;50.226;14.344;2024-03-06T11:05:38;43.33;;;30.23;;
77111;SDS011;66064;50.226;14.344;2024-03-06T11:08:11;48.60;;;33.28;;
77111;SDS011;66064;50.226;14.344;2024-03-06T11:10:40;48.90;;;31.13;;
77111;SDS011;66064;50.226;14.344;2024-03-06T11:13:25;49.83;;;33.67;;
77111;SDS011;66064;50.226;14.344;2024-03-06T11:15:53;44.92;;;30.85;;
77111;SDS011;66064;50.226;14.344;2024-03-06T11:23:25;46.75;;;31.15;;
77111;SDS011;66064;50.226;14.344;2024-03-06T11:28:17;43.80;;;30.92;;
77111;SDS011;66064;50.226;14.344;2024-03-06T11:30:56;49.58;;;30.73;;
77111;SDS011;66064;50.226;14.344;2024-03-06T11:33:28;42.53;;;26.95;;
77111;SDS011;66064;50.226;14.344;2024-03-06T11:36:14;40.10;;;25.70;;
77111;SDS011;66064;50.226;14.344;2024-03-06T11:39:27;37.67;;;24.35;;
77111;SDS011;66064;50.226;14.344;2024-03-06T11:44:17;37.10;;;26.35;;
77111;SDS011;66064;50.226;14.344;2024-03-06T11:49:19;38.92;;;25.45;;
77111;SDS011;66064;50.226;14.344;2024-03-06T11:51:50;32.47;;;23.83;;
77111;SDS011;66064;50.226;14.344;2024-03-06T11:54:17;30.10;;;22.08;;
77111;SDS011;66064;50.226;14.344;2024-03-06T11:56:50;31.85;;;21.80;;
77111;SDS011;66064;50.226;14.344;2024-03-06T11:59:26;29.85;;;21.30;;
77111;SDS011;66064;50.226;14.344;2024-03-06T12:02:01;27.42;;;20.10;;
77111;SDS011;66064;50.226;14.344;2024-03-06T12:04:30;25.75;;;18.90;;
77111;SDS011;66064;50.226;14.344;2024-03-06T12:06:59;28.73;;;18.77;;
77111;SDS011;66064;50.226;14.344;2024-03-06T12:09:31;27.50;;;17.90;;
77111;SDS011;66064;50.226;14.344;2024-03-06T12:12:01;26.23;;;18.60;;
77111;SDS011;66064;50.226;14.344;2024-03-06T12:14:29;25.33;;;18.52;;
77111;SDS011;66064;50.226;14.344;2024-03-06T12:16:55;27.55;;;18.88;;
77111;SDS011;66064;50.226;14.344;2024-03-06T12:19:22;33.25;;;21.17;;
77111;SDS011;66064;50.226;14.344;2024-03-06T12:21:48;33.90;;;19.65;;
77111;SDS011;66064;50.226;14.344;2024-03-06T12:24:15;31.33;;;20.73;;
77111;SDS011;66064;50.226;14.344;2024-03-06T12:26:44;28.73;;;20.45;;
77111;SDS011;66064;50.226;14.344;2024-03-06T12:29:11;28.08;;;20.63;;
77111;SDS011;66064;50.226;14.344;2024-03-06T12:31:37;29.70;;;23.45;;
77111;SDS011;66064;50.226;14.344;2024-03-06T12:34:07;31.83;;;20.30;;
77111;SDS011;66064;50.226;14.344;2024-03-06T12:36:35;26.15;;;20.65;;
77111;SDS011;66064;50.226;14.344;2024-03-06T12:39:02;28.13;;;19.83;;
77111;SDS011;66064;50.226;14.344;2024-03-06T12:41:29;25.48;;;18.30;;
77111;SDS011;66064;50.226;14.344;2024-03-06T12:43:55;29.73;;;20.02;;
77111;SDS011;66064;50.226;14.344;2024-03-06T12:46:22;28.42;;;19.00;;
77111;SDS011;66064;50.226;14.344;2024-03-06T12:48:50;25.15;;;18.02;;
77111;SDS011;66064;50.226;14.344;2024-03-06T12:51:16;28.38;;;19.58;;
77111;SDS011;66064;50.226;14.344;2024-03-06T12:53:43;37.60;;;21.48;;
77111;SDS011;66064;50.226;14.344;2024-03-06T12:56:09;35.40;;;23.13;;
77111;SDS011;66064;50.226;14.344;2024-03-06T12:58:37;34.00;;;23.05;;
77111;SDS011;66064;50.226;14.344;2024-03-06T13:01:03;37.90;;;25.83;;
77111;SDS011;66064;50.226;14.344;2024-03-06T13:03:30;36.70;;;27.50;;
77111;SDS011;66064;50.226;14.344;2024-03-06T13:05:57;38.63;;;25.95;;
77111;SDS011;66064;50.226;14.344;2024-03-06T13:08:24;46.10;;;28.85;;
77111;SDS011;66064;50.226;14.344;2024-03-06T13:10:51;50.03;;;30.70;;
77111;SDS011;66064;50.226;14.344;2024-03-06T13:13:18;54.80;;;33.28;;
77111;SDS011;66064;50.226;14.344;2024-03-06T13:15:43;49.70;;;30.38;;
77111;SDS011;66064;50.226;14.344;2024-03-06T13:18:11;46.42;;;29.52;;
77111;SDS011;66064;50.226;14.344;2024-03-06T13:20:38;48.08;;;31.73;;
77111;SDS011;66064;50.226;14.344;2024-03-06T13:23:05;44.03;;;30.35;;
77111;SDS011;66064;50.226;14.344;2024-03-06T13:25:32;47.80;;;30.80;;
77111;SDS011;66064;50.226;14.344;2024-03-06T13:27:58;41.95;;;25.55;;
77111;SDS011;66064;50.226;14.344;2024-03-06T13:30:24;42.80;;;29.92;;
77111;SDS011;66064;50.226;14.344;2024-03-06T13:32:54;39.90;;;30.15;;
77111;SDS011;66064;50.226;14.344;2024-03-06T13:35:21;38.05;;;27.17;;
77111;SDS011;66064;50.226;14.344;2024-03-06T13:37:47;33.00;;;21.08;;
77111;SDS011;66064;50.226;14.344;2024-03-06T13:40:15;35.80;;;24.08;;
77111;SDS011;66064;50.226;14.344;2024-03-06T13:42:42;35.67;;;24.77;;
77111;SDS011;66064;50.226;14.344;2024-03-06T13:45:09;33.72;;;23.55;;
77111;SDS011;66064;50.226;14.344;2024-03-06T13:47:43;34.88;;;25.13;;
77111;SDS011;66064;50.226;14.344;2024-03-06T13:50:14;32.92;;;23.83;;
77111;SDS011;66064;50.226;14.344;2024-03-06T13:52:41;36.45;;;25.10;;
77111;SDS011;66064;50.226;14.344;2024-03-06T13:55:08;29.15;;;21.98;;
77111;SDS011;66064;50.226;14.344;2024-03-06T13:57:35;31.70;;;21.63;;
77111;SDS011;66064;50.226;14.344;2024-03-06T14:00:03;29.63;;;20.73;;
77111;SDS011;66064;50.226;14.344;2024-03-06T14:02:31;25.42;;;18.98;;
77111;SDS011;66064;50.226;14.344;2024-03-06T14:04:59;29.52;;;21.52;;
77111;SDS011;66064;50.226;14.344;2024-03-06T14:07:26;26.67;;;19.73;;
77111;SDS011;66064;50.226;14.344;2024-03-06T14:09:53;34.42;;;24.40;;
77111;SDS011;66064;50.226;14.344;2024-03-06T14:12:19;30.50;;;21.75;;
77111;SDS011;66064;50.226;14.344;2024-03-06T14:14:46;28.63;;;21.63;;
77111;SDS011;66064;50.226;14.344;2024-03-06T14:17:11;26.67;;;20.05;;
77111;SDS011;66064;50.226;14.344;2024-03-06T14:19:39;27.58;;;21.13;;
77111;SDS011;66064;50.226;14.344;2024-03-06T14:22:06;28.20;;;20.10;;
77111;SDS011;66064;50.226;14.344;2024-03-06T14:24:33;28.25;;;17.13;;
77111;SDS011;66064;50.226;14.344;2024-03-06T14:26:58;24.75;;;19.85;;